Time;durP1;ratioP1;P1;durP2;ratioP2;P2;SDS_P1;SDS_P2;PMS_P1;PMS_P2;Temp;Humidity;BMP_temperature;BMP_pressure;BME280_temperature;BME280_humidity;BME280_pressure;Samples;Min_cycle;Max_cycle;Signal;HPM_P1;HPM_P2
2022/10/30 00:02:25;;;;;;;8.63;3.90;;;;;;;17.36;77.87;155821.94;4992983;28;20492;-76
2022/10/30 00:05:23;;;;;;;8.73;3.90;;;;;;;17.36;80.17;155823.25;4991079;28;20476;-76
2022/10/30 00:08:10;;;;;;;13.97;4.93;;;;;;;17.34;78.95;155816.72;4990950;28;20569;-76
2022/10/30 00:10:55;;;;;;;8.90;4.10;;;;;;;17.33;77.75;155814.13;4994112;28;20460;-76
2022/10/30 00:13:42;;;;;;;6.70;3.90;;;;;;;17.34;77.66;155816.72;4990814;28;21006;-90
2022/10/30 00:16:28;;;;;;;8.43;3.90;;;;;;;17.34;79.75;155816.72;4991732;28;20456;-90
2022/10/30 00:19:13;;;;;;;10.50;4.80;;;;;;;17.29;78.98;155803.72;4997900;28;20444;-90
2022/10/30 00:22:01;;;;;;;5.70;3.60;;;;;;;17.28;78.90;155802.41;4983115;28;20469;-90
2022/10/30 00:24:46;;;;;;;10.07;3.80;;;;;;;17.27;80.56;155798.47;4992012;28;20449;-77
2022/10/30 00:27:32;;;;;;;15.67;4.60;;;;;;;17.26;81.07;155795.91;4988793;28;20456;-76
2022/10/30 00:30:18;;;;;;;7.07;3.80;;;;;;;17.22;79.26;155785.47;4998558;28;20596;-76
2022/10/30 00:33:03;;;;;;;8.63;3.53;;;;;;;17.22;80.17;155785.47;4995590;28;20466;-76
2022/10/30 00:35:49;;;;;;;6.00;4.07;;;;;;;17.21;82.12;155782.91;4992298;28;20543;-76
2022/10/30 00:38:34;;;;;;;7.73;4.40;;;;;;;17.18;81.31;155776.41;4992555;28;20429;-76
2022/10/30 00:41:21;;;;;;;8.07;4.73;;;;;;;17.15;84.47;155768.59;4995358;28;20408;-76
2022/10/30 00:44:37;;;;;;;7.07;4.30;;;;;;;17.11;81.19;155756.84;4994788;28;20441;-76
2022/10/30 00:47:27;;;;;;;8.20;3.80;;;;;;;17.09;83.12;155751.63;4977462;28;20788;-76
2022/10/30 00:50:14;;;;;;;13.97;4.10;;;;;;;17.05;83.22;155743.81;4980236;28;20441;-76
2022/10/30 00:53:02;;;;;;;10.73;4.90;;;;;;;17.03;85.75;155737.31;4976970;28;20796;-76
2022/10/30 00:55:50;;;;;;;12.60;5.60;;;;;;;16.97;82.41;155723.00;4995259;28;20460;-75
2022/10/30 00:58:38;;;;;;;7.27;4.23;;;;;;;16.95;83.16;155717.81;4988086;28;20445;-78
2022/10/30 01:01:26;;;;;;;9.77;5.30;;;;;;;16.92;85.15;155708.69;4994084;28;20469;-78
2022/10/30 01:04:13;;;;;;;9.03;4.60;;;;;;;16.90;84.33;155703.50;4980173;28;20463;-78
2022/10/30 01:06:58;;;;;;;8.57;4.50;;;;;;;16.88;82.63;155698.31;4991861;28;20437;-78
2022/10/30 01:09:46;;;;;;;8.30;4.97;;;;;;;16.91;84.13;155706.13;4989961;28;20954;-78
2022/10/30 01:12:31;;;;;;;9.07;5.20;;;;;;;16.90;84.75;155704.81;4993597;28;20469;-78
2022/10/30 01:15:16;;;;;;;8.20;4.60;;;;;;;16.85;84.88;155691.81;4982705;28;20540;-78
2022/10/30 01:18:20;;;;;;;7.83;4.33;;;;;;;16.84;86.02;155687.88;4973436;28;20797;-76
2022/10/30 01:21:14;;;;;;;7.40;4.70;;;;;;;16.81;87.09;155681.38;4982410;28;20940;-76
2022/10/30 01:24:13;;;;;;;7.90;4.93;;;;;;;16.75;86.76;155665.78;4979982;28;20465;-76
2022/10/30 01:27:09;;;;;;;10.70;5.17;;;;;;;16.69;87.61;155648.84;4972177;28;20425;-76
2022/10/30 01:30:00;;;;;;;10.10;6.07;;;;;;;16.66;85.94;155641.03;4989745;28;20461;-76
2022/10/30 01:33:04;;;;;;;10.53;5.90;;;;;;;16.60;85.96;155626.72;4980222;28;20476;-76
2022/10/30 01:35:55;;;;;;;14.23;6.40;;;;;;;16.55;86.22;155613.72;4975167;28;20892;-76
2022/10/30 01:38:47;;;;;;;15.97;5.90;;;;;;;16.48;86.81;155595.47;4960750;28;20449;-76
2022/10/30 01:41:33;;;;;;;9.53;5.70;;;;;;;16.40;87.59;155574.66;4977886;28;20532;-76
2022/10/30 01:44:21;;;;;;;15.70;6.20;;;;;;;16.34;88.58;155559.06;4978003;28;20802;-76
2022/10/30 01:47:20;;;;;;;13.13;7.17;;;;;;;16.28;88.52;155543.47;4977011;28;20453;-76
2022/10/30 01:50:18;;;;;;;10.33;5.63;;;;;;;16.21;88.30;155525.25;4963561;28;20461;-76
2022/10/30 01:53:11;;;;;;;12.27;6.17;;;;;;;16.16;88.36;155512.25;4974811;28;20514;-78
2022/10/30 01:56:05;;;;;;;12.63;6.57;;;;;;;16.12;89.61;155501.88;4988497;28;20504;-77
2022/10/30 01:58:58;;;;;;;8.93;5.60;;;;;;;16.07;89.19;155488.88;4972367;28;20843;-79
2022/10/30 02:01:44;;;;;;;9.77;6.10;;;;;;;16.04;89.64;155482.38;4991442;28;20459;-78
2022/10/30 02:04:30;;;;;;;13.93;5.90;;;;;;;16.02;89.80;155477.13;4993379;28;20461;-78
2022/10/30 02:07:16;;;;;;;8.07;5.80;;;;;;;16.00;91.19;155471.94;4990539;28;20588;-77
2022/10/30 02:10:07;;;;;;;9.87;6.00;;;;;;;15.98;91.44;155465.44;4979596;28;20457;-78
2022/10/30 02:12:54;;;;;;;8.10;5.73;;;;;;;15.94;90.24;155455.06;4994003;28;20456;-77
2022/10/30 02:15:43;;;;;;;9.60;5.17;;;;;;;15.95;91.24;155458.94;4975133;28;20460;-78
2022/10/30 02:18:28;;;;;;;11.87;5.60;;;;;;;15.94;90.98;155455.06;4988452;28;20449;-78
2022/10/30 02:21:15;;;;;;;11.77;4.97;;;;;;;15.94;91.89;155456.31;4972888;28;20450;-78
2022/10/30 02:24:01;;;;;;;8.70;5.47;;;;;;;15.93;92.73;155452.44;4964861;28;20947;-78
2022/10/30 02:26:47;;;;;;;11.80;5.13;;;;;;;15.96;93.51;155460.25;4981557;28;20432;-78
2022/10/30 02:29:32;;;;;;;7.50;5.23;;;;;;;15.94;92.25;155456.31;4958962;28;20782;-78
2022/10/30 02:32:18;;;;;;;9.37;5.83;;;;;;;15.94;91.95;155455.06;4987398;28;20465;-78
2022/10/30 02:35:04;;;;;;;11.07;6.10;;;;;;;15.93;92.23;155452.44;4990937;28;20608;-78
2022/10/30 02:37:50;;;;;;;12.60;6.07;;;;;;;15.92;92.57;155449.81;4978758;28;20537;-78
2022/10/30 02:40:36;;;;;;;10.37;6.80;;;;;;;15.91;94.98;155447.25;4992534;28;20473;-77
2022/10/30 02:43:21;;;;;;;8.37;6.17;;;;;;;15.90;96.01;155444.63;4990280;28;20601;-78
2022/10/30 02:46:06;;;;;;;9.37;6.10;;;;;;;15.83;96.34;155429.03;4979030;28;20449;-77
2022/10/30 02:48:52;;;;;;;10.03;6.20;;;;;;;15.80;96.38;155419.94;4978021;28;20461;-77
2022/10/30 02:51:38;;;;;;;11.30;7.03;;;;;;;15.75;95.71;155408.22;4990337;28;20504;-78
2022/10/30 02:54:25;;;;;;;17.37;7.10;;;;;;;15.71;95.69;155397.84;4993919;28;20447;-78
2022/10/30 02:57:11;;;;;;;13.10;6.90;;;;;;;15.70;97.17;155393.97;4978358;28;20425;-78
2022/10/30 02:59:56;;;;;;;15.33;6.60;;;;;;;15.63;99.41;155375.72;4991413;28;20904;-77
2022/10/30 03:02:42;;;;;;;13.27;6.63;;;;;;;15.60;97.72;155367.91;4976720;28;20535;-78
2022/10/30 03:05:28;;;;;;;7.90;6.17;;;;;;;15.59;99.44;155366.66;4977304;28;20487;-78
2022/10/30 03:08:13;;;;;;;9.57;6.93;;;;;;;15.55;98.88;155356.25;4988537;28;20441;-78
2022/10/30 03:11:01;;;;;;;10.93;7.47;;;;;;;15.51;99.50;155345.88;4971271;28;20927;-77
2022/10/30 03:13:47;;;;;;;10.90;6.90;;;;;;;15.48;99.38;155338.06;4996060;28;20853;-77
2022/10/30 03:16:32;;;;;;;16.33;7.77;;;;;;;15.48;99.90;155336.75;4975811;28;20449;-77
2022/10/30 03:19:18;;;;;;;11.80;6.77;;;;;;;15.41;100.00;155319.78;4987066;28;20442;-77
2022/10/30 03:22:04;;;;;;;8.67;6.80;;;;;;;15.36;99.77;155306.78;4981833;28;21297;-77
2022/10/30 03:24:49;;;;;;;8.30;6.93;;;;;;;15.33;100.00;155298.97;4978572;28;20442;-78
2022/10/30 03:27:37;;;;;;;12.40;7.80;;;;;;;15.28;100.00;155286.00;4989241;28;20471;-77
2022/10/30 03:30:22;;;;;;;12.40;7.37;;;;;;;15.26;99.24;155280.81;4974131;28;20545;-78
2022/10/30 03:33:08;;;;;;;11.00;7.10;;;;;;;15.29;100.00;155287.31;4973206;28;20535;-78
2022/10/30 03:35:54;;;;;;;11.83;7.10;;;;;;;15.24;100.00;155276.94;4976209;28;21054;-77
2022/10/30 03:38:39;;;;;;;15.33;7.03;;;;;;;15.19;100.00;155262.63;4974776;28;20510;-78
2022/10/30 03:41:25;;;;;;;9.93;6.43;;;;;;;15.15;100.00;155252.22;4977147;28;20568;-78
2022/10/30 03:44:11;;;;;;;10.10;6.43;;;;;;;15.13;100.00;155247.03;4977922;28;20535;-77
2022/10/30 03:46:57;;;;;;;8.40;6.73;;;;;;;15.09;100.00;155236.66;4976739;28;20775;-77
2022/10/30 03:49:46;;;;;;;13.27;7.70;;;;;;;15.03;100.00;155221.03;4979970;28;20577;-75
2022/10/30 03:52:36;;;;;;;14.30;6.97;;;;;;;15.03;100.00;155221.03;4984337;28;20996;-78
2022/10/30 03:55:22;;;;;;;8.80;6.60;;;;;;;14.95;100.00;155201.56;4989760;28;20508;-78
2022/10/30 03:58:08;;;;;;;12.73;6.93;;;;;;;14.92;100.00;155192.47;4984396;28;20452;-77
2022/10/30 04:00:55;;;;;;;12.63;8.07;;;;;;;14.88;100.00;155182.09;4979428;28;20452;-77
2022/10/30 04:03:40;;;;;;;9.97;6.60;;;;;;;14.87;100.00;155179.47;4980456;28;20798;-77
2022/10/30 04:06:27;;;;;;;9.43;7.03;;;;;;;14.80;100.00;155162.56;4980166;28;20586;-91
2022/10/30 04:09:14;;;;;;;11.60;6.83;;;;;;;14.77;100.00;155153.50;4993374;28;20503;-91
2022/10/30 04:12:01;;;;;;;11.90;6.70;;;;;;;14.72;100.00;155140.50;4981090;28;20817;-90
2022/10/30 04:14:47;;;;;;;13.77;7.20;;;;;;;14.69;100.00;155132.72;4979485;28;20472;-91
2022/10/30 04:17:34;;;;;;;8.93;6.90;;;;;;;14.68;100.00;155130.09;4981247;28;20959;-90
2022/10/30 04:20:23;;;;;;;9.00;7.30;;;;;;;14.61;100.00;155114.50;4980281;28;20980;-91
2022/10/30 04:23:13;;;;;;;8.43;6.80;;;;;;;14.57;100.00;155104.13;4985226;28;20436;-91
2022/10/30 04:26:00;;;;;;;10.83;7.33;;;;;;;14.54;100.00;155096.31;4996612;28;20456;-90
2022/10/30 04:28:47;;;;;;;7.13;6.43;;;;;;;14.53;100.00;155093.72;4993834;28;20424;-90
2022/10/30 04:31:33;;;;;;;10.13;7.30;;;;;;;14.48;100.00;155080.72;4985053;28;20480;-90
2022/10/30 04:34:21;;;;;;;9.07;7.30;;;;;;;14.46;100.00;155075.53;4979740;28;20444;-89
2022/10/30 04:37:06;;;;;;;15.97;7.37;;;;;;;14.40;100.00;155059.94;4989216;28;20592;-89
2022/10/30 04:39:52;;;;;;;9.60;6.77;;;;;;;14.40;100.00;155058.69;4979786;28;20469;-89
2022/10/30 04:42:46;;;;;;;9.23;6.80;;;;;;;14.45;100.00;155071.69;4962108;28;20418;-89
2022/10/30 04:45:32;;;;;;;8.50;7.40;;;;;;;14.42;100.00;155063.88;4981525;28;20456;-89
2022/10/30 04:48:18;;;;;;;8.20;7.37;;;;;;;14.38;100.00;155054.75;4978959;28;20437;-89
2022/10/30 04:51:07;;;;;;;15.17;7.17;;;;;;;14.41;100.00;155061.25;4979567;28;20476;-89
2022/10/30 04:53:54;;;;;;;12.20;7.10;;;;;;;14.36;100.00;155049.59;4996867;28;20488;-89
2022/10/30 04:56:39;;;;;;;8.53;6.87;;;;;;;14.34;100.00;155044.41;4979791;28;20421;-89
2022/10/30 04:59:25;;;;;;;12.80;6.80;;;;;;;14.40;100.00;155058.69;4972773;28;20965;-88
2022/10/30 05:02:12;;;;;;;11.37;6.70;;;;;;;14.37;100.00;155052.19;4975893;28;20484;-88
2022/10/30 05:04:58;;;;;;;14.47;6.23;;;;;;;14.39;100.00;155056.06;4994105;28;20440;-89
2022/10/30 05:07:44;;;;;;;9.37;7.33;;;;;;;14.35;100.00;155046.97;4979739;28;20524;-89
2022/10/30 05:10:30;;;;;;;10.87;7.00;;;;;;;14.37;100.00;155052.19;4980825;28;20800;-89
2022/10/30 05:13:15;;;;;;;8.53;6.53;;;;;;;14.39;100.00;155057.38;4990250;28;20497;-89
2022/10/30 05:16:01;;;;;;;8.03;6.07;;;;;;;14.40;100.00;155059.94;4980078;28;20413;-88
2022/10/30 05:18:47;;;;;;;14.93;5.83;;;;;;;14.43;100.00;155067.75;4961598;28;20477;-89
2022/10/30 05:21:32;;;;;;;12.70;6.13;;;;;;;14.44;100.00;155070.38;4978490;28;20565;-89
2022/10/30 05:24:19;;;;;;;11.57;6.80;;;;;;;14.44;100.00;155070.38;4980387;28;20785;-89
2022/10/30 05:27:05;;;;;;;9.50;6.23;;;;;;;14.41;100.00;155061.25;4980067;28;20448;-90
2022/10/30 05:29:51;;;;;;;10.70;5.50;;;;;;;14.41;100.00;155062.56;4982113;28;20468;-89
2022/10/30 05:32:37;;;;;;;12.80;6.10;;;;;;;14.38;100.00;155054.75;4979814;28;20527;-89
2022/10/30 05:35:23;;;;;;;5.80;4.90;;;;;;;14.42;100.00;155065.19;4973073;28;20528;-89
2022/10/30 05:38:08;;;;;;;8.20;5.53;;;;;;;14.42;100.00;155065.19;4982994;28;20468;-89
2022/10/30 05:40:55;;;;;;;8.90;6.43;;;;;;;14.40;100.00;155059.94;4995061;28;20444;-76
2022/10/30 05:43:41;;;;;;;10.20;5.30;;;;;;;14.37;98.62;155052.19;4968733;28;20947;-76
2022/10/30 05:46:44;;;;;;;10.43;5.43;;;;;;;14.38;98.33;155054.75;4970792;28;20422;-76
2022/10/30 05:49:47;;;;;;;5.83;4.80;;;;;;;14.37;98.59;155052.19;4961636;28;20457;-76
2022/10/30 05:52:45;;;;;;;8.10;4.93;;;;;;;14.35;100.00;155046.97;4991764;28;20464;-76
2022/10/30 05:55:32;;;;;;;9.10;5.60;;;;;;;14.33;100.00;155040.47;4978559;28;20433;-76
2022/10/30 05:58:29;;;;;;;7.80;5.70;;;;;;;14.33;100.00;155041.78;4991136;28;20608;-76
2022/10/30 06:01:20;;;;;;;12.73;5.67;;;;;;;14.36;100.00;155048.28;4978863;28;20492;-76
2022/10/30 06:04:12;;;;;;;10.57;6.30;;;;;;;14.31;100.00;155036.59;4965239;28;20511;-76
2022/10/30 06:06:57;;;;;;;12.83;5.73;;;;;;;14.29;100.00;155031.38;4976015;28;20449;-76
2022/10/30 06:09:43;;;;;;;14.17;6.67;;;;;;;14.27;100.00;155026.13;4992312;28;20456;-76
2022/10/30 06:12:44;;;;;;;10.00;6.40;;;;;;;14.24;100.00;155018.38;4993396;28;20473;-76
2022/10/30 06:15:57;;;;;;;9.13;6.50;;;;;;;14.22;100.00;155013.16;4992957;28;20493;-76
2022/10/30 06:18:45;;;;;;;6.43;5.83;;;;;;;14.22;100.00;155013.16;4977933;28;20437;-76
2022/10/30 06:21:31;;;;;;;8.13;6.20;;;;;;;14.17;100.00;155000.19;4989726;28;20464;-76
2022/10/30 06:24:30;;;;;;;10.67;6.57;;;;;;;14.19;100.00;155004.09;4980332;28;20901;-76
2022/10/30 06:27:35;;;;;;;8.27;6.13;;;;;;;14.22;100.00;155013.16;4975148;28;20518;-76
2022/10/30 06:30:21;;;;;;;9.63;6.67;;;;;;;14.18;100.00;155002.78;4987974;28;20864;-76
2022/10/30 06:33:10;;;;;;;10.40;6.30;;;;;;;14.19;100.00;155005.34;4977341;28;20461;-76
2022/10/30 06:35:58;;;;;;;9.93;6.77;;;;;;;14.24;100.00;155017.09;4977360;28;20576;-76
2022/10/30 06:38:43;;;;;;;11.10;6.40;;;;;;;14.28;100.00;155028.75;4974806;28;20520;-76
2022/10/30 06:41:33;;;;;;;10.53;6.90;;;;;;;14.38;100.00;155054.75;4986500;28;20978;-76
2022/10/30 06:44:51;;;;;;;9.27;6.50;;;;;;;14.53;100.00;155093.72;4948687;28;20956;-76
2022/10/30 06:47:37;;;;;;;7.70;5.90;;;;;;;14.76;100.00;155152.19;4984944;28;20894;-76
2022/10/30 06:50:24;;;;;;;11.13;6.10;;;;;;;15.07;98.44;155231.41;4961836;28;20454;-76
2022/10/30 06:53:09;;;;;;;10.10;5.83;;;;;;;15.27;97.32;155282.13;4978035;28;20587;-76
2022/10/30 06:55:56;;;;;;;7.70;5.70;;;;;;;15.52;95.57;155348.44;4977662;28;20576;-76
2022/10/30 06:58:58;;;;;;;7.03;4.93;;;;;;;15.82;93.84;155425.13;4975096;28;20503;-76
2022/10/30 07:01:52;;;;;;;10.60;5.40;;;;;;;16.06;92.61;155486.25;4975996;28;20514;-76
2022/10/30 07:04:42;;;;;;;11.30;5.93;;;;;;;16.24;90.45;155533.06;4992938;28;20776;-76
2022/10/30 07:07:28;;;;;;;7.90;4.83;;;;;;;16.36;89.22;155564.28;4972087;28;20525;-76
2022/10/30 07:10:14;;;;;;;8.07;4.87;;;;;;;16.50;88.21;155600.66;4976979;28;20452;-76
2022/10/30 07:13:18;;;;;;;12.20;5.43;;;;;;;16.76;86.92;155668.38;4992712;28;21018;-76
2022/10/30 07:16:14;;;;;;;7.63;6.07;;;;;;;16.75;84.55;155665.78;4971203;28;20433;-76
2022/10/30 07:19:01;;;;;;;9.13;5.90;;;;;;;16.78;87.72;155672.28;4987932;28;20440;-76
2022/10/30 07:21:47;;;;;;;11.40;5.83;;;;;;;16.79;87.81;155674.88;4992760;28;20812;-76
2022/10/30 07:24:33;;;;;;;9.27;5.50;;;;;;;16.64;87.33;155637.16;4992027;28;20428;-76
2022/10/30 07:27:28;;;;;;;10.20;5.60;;;;;;;16.54;87.19;155611.16;4997652;28;20473;-76
2022/10/30 07:30:28;;;;;;;10.40;6.10;;;;;;;16.43;88.02;155582.47;4962001;28;20759;-76
2022/10/30 07:33:34;;;;;;;8.27;6.83;;;;;;;16.38;88.77;155569.47;4977030;28;20464;-77
2022/10/30 07:36:32;;;;;;;8.30;6.20;;;;;;;16.38;91.88;155569.47;4967356;28;20531;-76
2022/10/30 07:39:22;;;;;;;16.30;6.40;;;;;;;16.40;91.07;155574.66;4980798;28;20440;-76
2022/10/30 07:42:21;;;;;;;8.03;6.23;;;;;;;16.34;90.61;155560.34;4995249;28;20448;-76
2022/10/30 07:45:32;;;;;;;8.93;5.93;;;;;;;16.36;90.29;155564.28;4983557;28;20883;-76
2022/10/30 07:48:36;;;;;;;10.57;6.63;;;;;;;16.35;90.19;155561.66;4998274;28;20436;-76
2022/10/30 07:51:25;;;;;;;7.40;5.90;;;;;;;16.35;90.62;155561.66;4981341;28;20440;-76
2022/10/30 07:54:11;;;;;;;9.27;7.10;;;;;;;16.39;89.70;155573.34;4994195;28;21124;-76
2022/10/30 07:56:57;;;;;;;9.40;6.20;;;;;;;16.49;89.88;155598.09;4954716;28;20513;-76
2022/10/30 08:00:04;;;;;;;8.33;6.60;;;;;;;16.59;90.08;155622.84;4989146;28;20460;-76
2022/10/30 08:02:59;;;;;;;15.27;7.27;;;;;;;16.63;89.62;155634.53;4995766;28;20460;-76
2022/10/30 08:06:03;;;;;;;8.00;7.00;;;;;;;16.75;88.79;155664.47;4982789;28;20476;-76
2022/10/30 08:08:53;;;;;;;9.37;6.47;;;;;;;16.93;87.44;155712.63;4979865;28;20571;-76
2022/10/30 08:11:45;;;;;;;11.77;6.43;;;;;;;17.07;87.11;155746.44;4994521;28;20469;-76
2022/10/30 08:14:30;;;;;;;8.13;5.10;;;;;;;17.19;85.95;155777.66;4981413;28;20974;-76
2022/10/30 08:17:17;;;;;;;10.03;6.00;;;;;;;17.16;85.65;155769.84;4981214;28;20444;-76
2022/10/30 08:20:02;;;;;;;8.60;5.60;;;;;;;17.13;86.23;155762.06;4979308;28;20487;-76
2022/10/30 08:22:49;;;;;;;8.80;6.00;;;;;;;17.19;84.55;155777.66;4983895;28;20468;-76
2022/10/30 08:25:38;;;;;;;8.23;5.40;;;;;;;17.31;84.86;155810.22;4980399;28;20437;-76
2022/10/30 08:28:23;;;;;;;8.47;6.10;;;;;;;17.39;84.20;155829.75;4980832;28;20436;-76
2022/10/30 08:31:09;;;;;;;7.90;6.43;;;;;;;17.45;87.61;155845.34;4980840;28;20568;-76
2022/10/30 08:34:16;;;;;;;9.50;5.40;;;;;;;17.45;84.21;155845.34;4986063;28;20468;-76
2022/10/30 08:37:12;;;;;;;9.90;5.93;;;;;;;17.53;83.55;155867.53;4980578;28;20759;-76
2022/10/30 08:39:59;;;;;;;9.20;4.63;;;;;;;17.52;83.91;155864.91;4980195;28;20453;-76
2022/10/30 08:43:00;;;;;;;10.40;6.83;;;;;;;17.73;83.60;155918.31;4980597;28;20461;-76
2022/10/30 08:45:46;;;;;;;10.87;6.27;;;;;;;17.79;81.50;155933.91;4979687;28;20460;-90
2022/10/30 08:48:33;;;;;;;15.10;5.43;;;;;;;17.75;81.85;155923.50;4979396;28;20580;-90
2022/10/30 08:51:19;;;;;;;9.47;5.80;;;;;;;17.72;82.76;155914.38;4994756;28;20515;-90
2022/10/30 08:54:05;;;;;;;8.70;5.10;;;;;;;17.75;83.65;155922.19;4975380;28;20622;-90
2022/10/30 08:56:50;;;;;;;7.00;4.67;;;;;;;17.81;82.40;155937.84;4993969;28;20444;-90
2022/10/30 08:59:36;;;;;;;6.57;5.10;;;;;;;17.79;81.88;155933.91;4983183;28;20596;-90
2022/10/30 09:02:21;;;;;;;7.33;5.90;;;;;;;17.87;82.42;155954.72;4978687;28;20480;-90
2022/10/30 09:05:25;;;;;;;9.20;5.13;;;;;;;17.91;81.67;155965.16;4994166;28;20448;-90
2022/10/30 09:08:48;;;;;;;6.77;5.30;;;;;;;17.90;82.20;155962.56;4916969;29;20456;-90
2022/10/30 09:11:59;;;;;;;7.10;5.00;;;;;;;17.99;81.25;155986.00;4994331;28;20946;-90
2022/10/30 09:14:45;;;;;;;10.63;4.83;;;;;;;17.99;81.51;155986.00;4980879;28;20489;-90
2022/10/30 09:17:31;;;;;;;6.77;5.10;;;;;;;17.99;79.85;155986.00;4996777;28;20460;-90
2022/10/30 09:20:16;;;;;;;7.73;4.90;;;;;;;18.10;80.20;156014.66;4990282;28;20840;-90
2022/10/30 09:23:02;;;;;;;5.43;4.57;;;;;;;18.12;80.13;156018.56;4981151;28;20429;-90
2022/10/30 09:25:48;;;;;;;8.23;5.07;;;;;;;18.17;81.57;156031.56;4993980;28;21098;-90
2022/10/30 09:28:53;;;;;;;8.20;4.33;;;;;;;18.20;78.59;156040.69;4995693;28;20846;-90
2022/10/30 09:31:57;;;;;;;9.47;4.03;;;;;;;18.22;77.71;156045.91;4995591;28;20464;-76
2022/10/30 09:34:44;;;;;;;8.37;4.37;;;;;;;18.27;79.54;156056.34;4997453;28;20835;-76
2022/10/30 09:37:37;;;;;;;6.47;4.27;;;;;;;18.30;77.15;156064.13;4978278;28;20461;-76
2022/10/30 09:40:36;;;;;;;7.23;4.40;;;;;;;18.36;77.17;156081.06;4975123;28;20827;-76
2022/10/30 09:43:32;;;;;;;10.63;4.40;;;;;;;18.39;77.76;156087.59;4979403;28;20888;-76
2022/10/30 09:46:29;;;;;;;5.13;4.07;;;;;;;18.41;78.60;156092.78;4991919;28;20990;-77
2022/10/30 09:49:27;;;;;;;7.47;4.33;;;;;;;18.43;79.08;156097.97;4987855;28;20675;-77
2022/10/30 09:52:27;;;;;;;7.43;4.90;;;;;;;18.52;79.07;156121.50;4993344;28;20440;-76
2022/10/30 09:55:25;;;;;;;8.30;5.13;;;;;;;18.54;78.43;156128.00;4977454;28;21097;-77
2022/10/30 09:58:20;;;;;;;9.40;4.27;;;;;;;18.63;76.44;156150.16;4974515;28;20454;-76
2022/10/30 10:01:13;;;;;;;6.50;4.27;;;;;;;18.67;75.38;156160.56;4969879;28;20480;-76
2022/10/30 10:04:11;;;;;;;5.60;4.07;;;;;;;18.63;75.22;156150.16;4979018;28;20420;-76
2022/10/30 10:07:10;;;;;;;6.87;3.80;;;;;;;18.60;76.18;156143.66;4985820;28;20468;-76
2022/10/30 10:10:13;;;;;;;9.07;4.00;;;;;;;18.60;77.14;156142.34;4970687;28;20447;-76
2022/10/30 10:13:24;;;;;;;9.90;4.97;;;;;;;18.65;78.18;156155.38;4978149;28;20509;-76
2022/10/30 10:16:16;;;;;;;5.43;4.40;;;;;;;18.72;79.11;156173.59;4988506;28;20448;-90
2022/10/30 10:19:07;;;;;;;5.60;4.97;;;;;;;18.77;79.17;156187.91;4993962;28;20500;-91
2022/10/30 10:21:56;;;;;;;8.23;5.30;;;;;;;18.82;79.70;156199.69;4993319;28;20551;-90
2022/10/30 10:24:46;;;;;;;6.10;4.80;;;;;;;18.92;80.43;156224.41;4987736;28;20464;-90
2022/10/30 10:27:45;;;;;;;11.97;5.13;;;;;;;19.00;80.23;156246.59;4975752;28;20437;-90
2022/10/30 10:30:37;;;;;;;7.27;4.50;;;;;;;19.06;80.89;156262.19;4989068;28;20812;-90
2022/10/30 10:33:32;;;;;;;7.13;5.17;;;;;;;19.10;80.62;156272.63;4990412;28;20470;-90
2022/10/30 10:36:27;;;;;;;6.43;4.50;;;;;;;19.12;81.08;156276.53;4974960;28;20430;-90
2022/10/30 10:39:23;;;;;;;10.07;5.40;;;;;;;19.18;81.15;156293.50;4975655;28;20518;-90
2022/10/30 10:42:18;;;;;;;11.97;4.97;;;;;;;19.22;81.18;156303.88;4978342;28;20453;-91
2022/10/30 10:45:25;;;;;;;7.80;4.57;;;;;;;19.29;80.97;156320.84;4990360;28;20509;-90
2022/10/30 10:48:30;;;;;;;9.10;5.57;;;;;;;19.37;80.96;156341.72;4987742;28;20931;-90
2022/10/30 10:51:26;;;;;;;6.10;4.83;;;;;;;19.57;80.61;156393.88;4978344;28;20961;-90
2022/10/30 10:54:15;;;;;;;5.80;4.70;;;;;;;19.61;80.48;156403.03;4999086;28;20459;-91
2022/10/30 10:57:00;;;;;;;6.53;4.40;;;;;;;19.64;80.54;156410.84;4978437;28;20598;-90
2022/10/30 10:59:48;;;;;;;6.60;5.07;;;;;;;19.86;79.46;156469.50;4978754;28;20449;-90
2022/10/30 11:02:39;;;;;;;7.47;4.63;;;;;;;20.00;78.88;156504.72;4985978;28;20481;-89
2022/10/30 11:05:32;;;;;;;10.53;5.30;;;;;;;19.91;79.69;156481.22;4988612;28;20949;-90
2022/10/30 11:08:20;;;;;;;5.80;4.40;;;;;;;19.85;80.81;156465.63;4972247;28;20418;-90
2022/10/30 11:11:07;;;;;;;6.70;4.80;;;;;;;19.76;81.42;156443.44;4992074;28;20456;-91
2022/10/30 11:13:52;;;;;;;7.80;4.90;;;;;;;19.86;81.43;156468.19;4992753;28;20457;-91
2022/10/30 11:16:41;;;;;;;8.20;5.57;;;;;;;19.94;81.92;156489.06;4992007;28;21037;-90
2022/10/30 11:19:31;;;;;;;9.13;4.97;;;;;;;20.10;80.93;156529.47;4990114;28;20445;-90
2022/10/30 11:22:23;;;;;;;6.17;4.53;;;;;;;20.11;80.81;156532.09;4978552;28;20561;-90
2022/10/30 11:25:22;;;;;;;6.87;4.83;;;;;;;20.14;80.95;156541.25;4990406;28;20425;-91
2022/10/30 11:28:26;;;;;;;8.17;4.97;;;;;;;20.05;81.44;156519.06;4979120;28;20449;-91
2022/10/30 11:31:22;;;;;;;10.90;4.77;;;;;;;20.12;80.83;156534.72;4992164;28;20456;-90
2022/10/30 11:34:29;;;;;;;8.43;5.00;;;;;;;20.07;81.66;156521.69;4993728;28;20452;-91
2022/10/30 11:37:30;;;;;;;10.03;4.80;;;;;;;20.13;81.56;156538.63;5001740;28;20572;-90
2022/10/30 11:40:19;;;;;;;9.80;4.97;;;;;;;20.12;81.58;156536.00;5002811;28;20428;-91
2022/10/30 11:43:05;;;;;;;6.50;4.50;;;;;;;20.16;81.28;156545.13;4997994;28;20413;-90
2022/10/30 11:45:50;;;;;;;8.17;5.07;;;;;;;20.12;81.28;156536.00;4994708;28;20511;-90
2022/10/30 11:48:38;;;;;;;9.30;4.63;;;;;;;20.07;81.07;156522.94;4993925;28;20460;-91
2022/10/30 11:51:34;;;;;;;7.07;4.60;;;;;;;20.02;80.10;156509.91;4994232;28;20801;-91
2022/10/30 11:54:21;;;;;;;6.60;4.30;;;;;;;20.00;79.97;156504.72;4992448;28;20480;-91
2022/10/30 11:57:18;;;;;;;8.10;4.53;;;;;;;19.95;80.25;156491.69;4998670;28;20935;-91
2022/10/30 12:00:06;;;;;;;6.43;4.00;;;;;;;19.93;81.07;156487.78;4992737;28;20777;-91
2022/10/30 12:02:59;;;;;;;9.33;4.80;;;;;;;19.97;81.31;156496.88;4992117;28;20476;-91
2022/10/30 12:05:44;;;;;;;6.13;4.20;;;;;;;19.95;81.71;156491.69;4993329;28;20527;-91
2022/10/30 12:08:30;;;;;;;6.77;4.33;;;;;;;19.94;82.46;156490.38;4993224;28;20456;-91
2022/10/30 12:11:17;;;;;;;7.40;4.40;;;;;;;19.91;82.63;156481.22;4975483;28;20580;-90
2022/10/30 12:14:02;;;;;;;9.67;5.17;;;;;;;19.89;83.38;156476.03;4995389;28;20990;-90
2022/10/30 12:16:49;;;;;;;5.67;4.10;;;;;;;19.87;83.30;156470.81;4997501;28;20456;-91
2022/10/30 12:19:35;;;;;;;7.90;4.20;;;;;;;19.90;83.46;156478.66;4996175;28;20465;-91
2022/10/30 12:22:38;;;;;;;11.33;4.00;;;;;;;19.96;83.91;156494.31;4982580;28;20994;-91
2022/10/30 12:25:25;;;;;;;6.00;5.03;;;;;;;19.97;83.71;156496.88;4991911;28;20419;-91
2022/10/30 12:28:15;;;;;;;10.90;4.77;;;;;;;20.00;84.21;156506.03;5002119;28;20853;-91
2022/10/30 12:31:04;;;;;;;6.83;4.60;;;;;;;20.03;85.09;156512.53;4976950;28;20465;-91
2022/10/30 12:34:04;;;;;;;7.30;4.10;;;;;;;20.10;85.70;156529.47;4991193;28;20448;-91
2022/10/30 12:36:53;;;;;;;6.37;4.53;;;;;;;20.13;85.92;156538.63;4996408;28;20441;-90
2022/10/30 12:39:49;;;;;;;7.73;4.33;;;;;;;20.20;86.11;156555.59;4996781;28;20480;-91
2022/10/30 12:42:39;;;;;;;10.23;4.63;;;;;;;20.27;85.96;156573.88;4996981;28;20457;-91
2022/10/30 12:45:29;;;;;;;11.90;5.00;;;;;;;20.27;85.72;156575.19;4997410;28;20565;-90
2022/10/30 12:48:18;;;;;;;5.50;4.47;;;;;;;20.30;86.07;156581.72;4996441;28;20911;-92
2022/10/30 12:51:12;;;;;;;6.20;4.77;;;;;;;20.33;85.56;156590.81;4996824;28;20453;-93
2022/10/30 12:54:00;;;;;;;4.63;4.10;;;;;;;20.34;85.00;156593.44;5010638;28;20563;-92
2022/10/30 12:56:48;;;;;;;8.43;4.43;;;;;;;20.38;84.61;156603.91;5002700;28;20534;-93
2022/10/30 12:59:40;;;;;;;5.40;4.13;;;;;;;20.39;84.02;156606.47;4979262;28;20418;-92
2022/10/30 13:02:42;;;;;;;5.83;4.30;;;;;;;20.39;83.36;156606.47;4981634;28;20567;-92
2022/10/30 13:05:32;;;;;;;5.60;4.27;;;;;;;20.44;83.32;156618.22;4985152;28;20844;-92
2022/10/30 13:08:21;;;;;;;7.13;4.83;;;;;;;20.50;83.48;156633.88;4976564;28;20438;-92